sensor_id;sensor_type;location;lat;lon;timestamp;P1;durP1;ratioP1;P2;durP2;ratioP2
1010;SDS011;494;48.744;10.106;2023-05-07T00:00:09;11.23;;;5.70;;
1010;SDS011;494;48.744;10.106;2023-05-07T00:02:44;11.70;;;6.57;;
1010;SDS011;494;48.744;10.106;2023-05-07T00:05:15;12.93;;;6.30;;
1010;SDS011;494;48.744;10.106;2023-05-07T00:07:46;10.37;;;5.80;;
1010;SDS011;494;48.744;10.106;2023-05-07T00:10:15;9.50;;;5.90;;
1010;SDS011;494;48.744;10.106;2023-05-07T00:12:45;10.90;;;6.40;;
1010;SDS011;494;48.744;10.106;2023-05-07T00:15:14;9.50;;;6.47;;
1010;SDS011;494;48.744;10.106;2023-05-07T00:17:52;10.47;;;6.97;;
1010;SDS011;494;48.744;10.106;2023-05-07T00:20:23;14.20;;;6.50;;
1010;SDS011;494;48.744;10.106;2023-05-07T00:22:52;11.20;;;5.07;;
1010;SDS011;494;48.744;10.106;2023-05-07T00:25:22;9.40;;;3.17;;
1010;SDS011;494;48.744;10.106;2023-05-07T00:27:51;9.90;;;3.20;;
1010;SDS011;494;48.744;10.106;2023-05-07T00:30:19;8.80;;;3.50;;
1010;SDS011;494;48.744;10.106;2023-05-07T00:32:49;9.40;;;3.50;;
1010;SDS011;494;48.744;10.106;2023-05-07T00:35:18;18.80;;;3.83;;
1010;SDS011;494;48.744;10.106;2023-05-07T00:37:47;9.80;;;3.63;;
1010;SDS011;494;48.744;10.106;2023-05-07T00:40:16;9.97;;;3.60;;
1010;SDS011;494;48.744;10.106;2023-05-07T00:42:45;9.13;;;3.00;;
1010;SDS011;494;48.744;10.106;2023-05-07T00:45:15;9.50;;;3.13;;
1010;SDS011;494;48.744;10.106;2023-05-07T00:47:44;10.07;;;3.47;;
1010;SDS011;494;48.744;10.106;2023-05-07T00:50:14;10.07;;;3.67;;
1010;SDS011;494;48.744;10.106;2023-05-07T00:52:43;9.93;;;4.33;;
1010;SDS011;494;48.744;10.106;2023-05-07T00:55:12;10.87;;;3.70;;
1010;SDS011;494;48.744;10.106;2023-05-07T00:57:41;8.70;;;3.37;;
1010;SDS011;494;48.744;10.106;2023-05-07T01:00:12;11.37;;;4.20;;
1010;SDS011;494;48.744;10.106;2023-05-07T01:02:45;10.70;;;4.57;;
1010;SDS011;494;48.744;10.106;2023-05-07T01:05:18;9.10;;;3.77;;
1010;SDS011;494;48.744;10.106;2023-05-07T01:07:50;10.43;;;4.47;;
1010;SDS011;494;48.744;10.106;2023-05-07T01:10:21;11.43;;;3.97;;
1010;SDS011;494;48.744;10.106;2023-05-07T01:12:51;11.13;;;4.43;;
1010;SDS011;494;48.744;10.106;2023-05-07T01:15:22;11.70;;;4.33;;
1010;SDS011;494;48.744;10.106;2023-05-07T01:17:51;10.23;;;3.90;;
1010;SDS011;494;48.744;10.106;2023-05-07T01:20:22;9.60;;;3.90;;
1010;SDS011;494;48.744;10.106;2023-05-07T01:22:54;9.60;;;4.00;;
1010;SDS011;494;48.744;10.106;2023-05-07T01:25:27;10.70;;;4.30;;
1010;SDS011;494;48.744;10.106;2023-05-07T01:27:57;11.40;;;4.80;;
1010;SDS011;494;48.744;10.106;2023-05-07T01:30:28;11.00;;;4.20;;
1010;SDS011;494;48.744;10.106;2023-05-07T01:32:58;10.80;;;4.50;;
1010;SDS011;494;48.744;10.106;2023-05-07T01:35:34;10.17;;;4.37;;
1010;SDS011;494;48.744;10.106;2023-05-07T01:38:09;10.17;;;4.07;;
1010;SDS011;494;48.744;10.106;2023-05-07T01:40:39;8.67;;;3.63;;
1010;SDS011;494;48.744;10.106;2023-05-07T01:43:09;9.40;;;3.80;;
1010;SDS011;494;48.744;10.106;2023-05-07T01:45:39;11.60;;;4.43;;
1010;SDS011;494;48.744;10.106;2023-05-07T01:48:11;9.97;;;4.43;;
1010;SDS011;494;48.744;10.106;2023-05-07T01:50:43;10.90;;;4.20;;
1010;SDS011;494;48.744;10.106;2023-05-07T01:53:14;9.87;;;4.10;;
1010;SDS011;494;48.744;10.106;2023-05-07T01:55:44;10.30;;;4.10;;
1010;SDS011;494;48.744;10.106;2023-05-07T01:58:13;11.03;;;4.30;;
1010;SDS011;494;48.744;10.106;2023-05-07T02:00:42;9.83;;;4.40;;
1010;SDS011;494;48.744;10.106;2023-05-07T02:03:12;11.23;;;3.83;;
1010;SDS011;494;48.744;10.106;2023-05-07T02:05:40;10.10;;;4.03;;
1010;SDS011;494;48.744;10.106;2023-05-07T02:08:09;9.60;;;4.20;;
1010;SDS011;494;48.744;10.106;2023-05-07T02:10:42;10.20;;;4.10;;
1010;SDS011;494;48.744;10.106;2023-05-07T02:13:15;9.57;;;4.10;;
1010;SDS011;494;48.744;10.106;2023-05-07T02:15:44;9.43;;;3.77;;
1010;SDS011;494;48.744;10.106;2023-05-07T02:18:17;10.07;;;3.80;;
1010;SDS011;494;48.744;10.106;2023-05-07T02:20:45;11.10;;;3.80;;
1010;SDS011;494;48.744;10.106;2023-05-07T02:23:15;10.63;;;3.60;;
1010;SDS011;494;48.744;10.106;2023-05-07T02:25:45;10.80;;;4.10;;
1010;SDS011;494;48.744;10.106;2023-05-07T02:28:13;10.67;;;3.97;;
1010;SDS011;494;48.744;10.106;2023-05-07T02:30:43;10.13;;;3.80;;
1010;SDS011;494;48.744;10.106;2023-05-07T02:33:12;9.60;;;3.83;;
1010;SDS011;494;48.744;10.106;2023-05-07T02:35:40;8.40;;;3.57;;
1010;SDS011;494;48.744;10.106;2023-05-07T02:38:09;10.00;;;4.20;;
1010;SDS011;494;48.744;10.106;2023-05-07T02:40:37;8.87;;;3.97;;
1010;SDS011;494;48.744;10.106;2023-05-07T02:43:08;8.97;;;3.80;;
1010;SDS011;494;48.744;10.106;2023-05-07T02:45:36;10.80;;;4.30;;
1010;SDS011;494;48.744;10.106;2023-05-07T02:48:05;10.93;;;4.87;;
1010;SDS011;494;48.744;10.106;2023-05-07T02:50:34;13.37;;;4.83;;
1010;SDS011;494;48.744;10.106;2023-05-07T02:53:02;9.73;;;4.23;;
1010;SDS011;494;48.744;10.106;2023-05-07T02:55:31;10.20;;;4.87;;
1010;SDS011;494;48.744;10.106;2023-05-07T02:58:00;12.00;;;4.97;;
1010;SDS011;494;48.744;10.106;2023-05-07T03:00:30;12.60;;;5.20;;
1010;SDS011;494;48.744;10.106;2023-05-07T03:02:59;12.00;;;4.93;;
1010;SDS011;494;48.744;10.106;2023-05-07T03:05:28;11.27;;;5.53;;
1010;SDS011;494;48.744;10.106;2023-05-07T03:07:56;10.87;;;4.83;;
1010;SDS011;494;48.744;10.106;2023-05-07T03:10:25;11.10;;;4.90;;
1010;SDS011;494;48.744;10.106;2023-05-07T03:12:53;11.20;;;4.27;;
1010;SDS011;494;48.744;10.106;2023-05-07T03:15:23;8.77;;;3.80;;
1010;SDS011;494;48.744;10.106;2023-05-07T03:17:53;10.90;;;3.83;;
1010;SDS011;494;48.744;10.106;2023-05-07T03:20:22;9.47;;;4.07;;
1010;SDS011;494;48.744;10.106;2023-05-07T03:22:50;10.20;;;4.20;;
1010;SDS011;494;48.744;10.106;2023-05-07T03:25:19;15.30;;;4.37;;
1010;SDS011;494;48.744;10.106;2023-05-07T03:27:48;12.73;;;4.60;;
1010;SDS011;494;48.744;10.106;2023-05-07T03:30:17;11.27;;;4.20;;
1010;SDS011;494;48.744;10.106;2023-05-07T03:32:46;10.77;;;3.77;;
1010;SDS011;494;48.744;10.106;2023-05-07T03:35:16;10.70;;;4.30;;
1010;SDS011;494;48.744;10.106;2023-05-07T03:37:45;11.23;;;4.00;;
1010;SDS011;494;48.744;10.106;2023-05-07T03:40:14;11.00;;;4.10;;
1010;SDS011;494;48.744;10.106;2023-05-07T03:42:43;10.60;;;4.40;;
1010;SDS011;494;48.744;10.106;2023-05-07T03:45:11;11.63;;;4.90;;
1010;SDS011;494;48.744;10.106;2023-05-07T03:47:40;9.93;;;4.70;;
1010;SDS011;494;48.744;10.106;2023-05-07T03:50:09;10.97;;;4.80;;
1010;SDS011;494;48.744;10.106;2023-05-07T03:52:42;10.63;;;4.83;;
1010;SDS011;494;48.744;10.106;2023-05-07T03:55:11;9.70;;;4.33;;
1010;SDS011;494;48.744;10.106;2023-05-07T03:57:40;10.53;;;4.77;;
1010;SDS011;494;48.744;10.106;2023-05-07T04:00:09;13.60;;;5.27;;
1010;SDS011;494;48.744;10.106;2023-05-07T04:02:39;10.50;;;4.77;;
1010;SDS011;494;48.744;10.106;2023-05-07T04:05:08;10.60;;;4.30;;
1010;SDS011;494;48.744;10.106;2023-05-07T04:07:36;10.43;;;3.97;;
1010;SDS011;494;48.744;10.106;2023-05-07T04:10:07;11.43;;;5.20;;
1010;SDS011;494;48.744;10.106;2023-05-07T04:12:37;13.10;;;5.63;;
1010;SDS011;494;48.744;10.106;2023-05-07T04:15:07;11.30;;;5.20;;
1010;SDS011;494;48.744;10.106;2023-05-07T04:17:36;12.73;;;6.20;;
1010;SDS011;494;48.744;10.106;2023-05-07T04:20:05;14.03;;;6.00;;
1010;SDS011;494;48.744;10.106;2023-05-07T04:22:37;12.70;;;5.60;;
1010;SDS011;494;48.744;10.106;2023-05-07T04:25:09;13.53;;;5.50;;
1010;SDS011;494;48.744;10.106;2023-05-07T04:27:38;11.00;;;5.00;;
1010;SDS011;494;48.744;10.106;2023-05-07T04:30:07;14.20;;;5.00;;
1010;SDS011;494;48.744;10.106;2023-05-07T04:32:38;11.53;;;5.10;;
1010;SDS011;494;48.744;10.106;2023-05-07T04:35:06;10.70;;;5.90;;
1010;SDS011;494;48.744;10.106;2023-05-07T04:37:35;11.27;;;5.60;;
1010;SDS011;494;48.744;10.106;2023-05-07T04:40:04;18.73;;;5.60;;
1010;SDS011;494;48.744;10.106;2023-05-07T04:42:37;13.37;;;5.00;;
1010;SDS011;494;48.744;10.106;2023-05-07T04:45:07;14.53;;;4.87;;
1010;SDS011;494;48.744;10.106;2023-05-07T04:47:37;10.93;;;4.60;;
1010;SDS011;494;48.744;10.106;2023-05-07T04:50:06;11.07;;;4.50;;
1010;SDS011;494;48.744;10.106;2023-05-07T04:52:36;9.70;;;4.40;;
1010;SDS011;494;48.744;10.106;2023-05-07T04:55:05;9.30;;;4.30;;
1010;SDS011;494;48.744;10.106;2023-05-07T04:57:36;14.47;;;4.43;;
1010;SDS011;494;48.744;10.106;2023-05-07T05:00:06;11.23;;;4.30;;
1010;SDS011;494;48.744;10.106;2023-05-07T05:02:36;11.37;;;5.00;;
1010;SDS011;494;48.744;10.106;2023-05-07T05:05:05;10.30;;;5.00;;
1010;SDS011;494;48.744;10.106;2023-05-07T05:07:35;11.50;;;5.40;;
1010;SDS011;494;48.744;10.106;2023-05-07T05:10:04;12.13;;;5.10;;
1010;SDS011;494;48.744;10.106;2023-05-07T05:12:36;9.80;;;4.23;;
1010;SDS011;494;48.744;10.106;2023-05-07T05:15:05;11.27;;;4.87;;
1010;SDS011;494;48.744;10.106;2023-05-07T05:17:36;12.10;;;5.10;;
1010;SDS011;494;48.744;10.106;2023-05-07T05:20:06;12.37;;;5.50;;
1010;SDS011;494;48.744;10.106;2023-05-07T05:22:37;13.03;;;6.10;;
1010;SDS011;494;48.744;10.106;2023-05-07T05:25:08;11.10;;;6.30;;
1010;SDS011;494;48.744;10.106;2023-05-07T05:27:37;13.17;;;6.53;;
1010;SDS011;494;48.744;10.106;2023-05-07T05:30:06;11.00;;;5.83;;
1010;SDS011;494;48.744;10.106;2023-05-07T05:32:36;11.90;;;5.80;;
1010;SDS011;494;48.744;10.106;2023-05-07T05:35:05;11.00;;;6.20;;
1010;SDS011;494;48.744;10.106;2023-05-07T05:37:34;12.70;;;5.53;;
1010;SDS011;494;48.744;10.106;2023-05-07T05:40:03;12.20;;;5.87;;
1010;SDS011;494;48.744;10.106;2023-05-07T05:42:35;10.40;;;4.77;;
1010;SDS011;494;48.744;10.106;2023-05-07T05:45:04;10.33;;;4.70;;
1010;SDS011;494;48.744;10.106;2023-05-07T05:47:34;10.47;;;4.83;;
1010;SDS011;494;48.744;10.106;2023-05-07T05:50:03;11.40;;;5.13;;
1010;SDS011;494;48.744;10.106;2023-05-07T05:52:33;12.30;;;5.80;;
1010;SDS011;494;48.744;10.106;2023-05-07T05:55:02;11.10;;;5.50;;
1010;SDS011;494;48.744;10.106;2023-05-07T05:57:31;11.77;;;5.87;;
1010;SDS011;494;48.744;10.106;2023-05-07T06:00:01;13.43;;;5.90;;
1010;SDS011;494;48.744;10.106;2023-05-07T06:02:33;16.80;;;5.90;;
1010;SDS011;494;48.744;10.106;2023-05-07T06:05:02;13.10;;;6.13;;
1010;SDS011;494;48.744;10.106;2023-05-07T06:07:32;12.83;;;6.63;;
1010;SDS011;494;48.744;10.106;2023-05-07T06:10:02;16.33;;;7.13;;
1010;SDS011;494;48.744;10.106;2023-05-07T06:12:31;12.40;;;6.33;;
1010;SDS011;494;48.744;10.106;2023-05-07T06:15:02;16.00;;;7.00;;
1010;SDS011;494;48.744;10.106;2023-05-07T06:17:31;16.03;;;8.60;;
1010;SDS011;494;48.744;10.106;2023-05-07T06:20:01;14.70;;;7.43;;
1010;SDS011;494;48.744;10.106;2023-05-07T06:22:30;14.53;;;6.77;;
1010;SDS011;494;48.744;10.106;2023-05-07T06:24:59;12.50;;;6.50;;
1010;SDS011;494;48.744;10.106;2023-05-07T06:27:27;12.17;;;6.00;;
1010;SDS011;494;48.744;10.106;2023-05-07T06:29:56;10.80;;;5.83;;
1010;SDS011;494;48.744;10.106;2023-05-07T06:32:26;11.80;;;5.47;;
1010;SDS011;494;48.744;10.106;2023-05-07T06:34:55;11.90;;;6.23;;
1010;SDS011;494;48.744;10.106;2023-05-07T06:37:23;11.90;;;5.90;;
1010;SDS011;494;48.744;10.106;2023-05-07T06:39:52;13.07;;;6.57;;
1010;SDS011;494;48.744;10.106;2023-05-07T06:42:22;15.03;;;9.30;;
1010;SDS011;494;48.744;10.106;2023-05-07T06:44:50;12.97;;;8.27;;
1010;SDS011;494;48.744;10.106;2023-05-07T06:47:19;12.70;;;6.93;;
1010;SDS011;494;48.744;10.106;2023-05-07T06:49:49;13.10;;;7.07;;
1010;SDS011;494;48.744;10.106;2023-05-07T06:52:18;13.33;;;6.40;;
1010;SDS011;494;48.744;10.106;2023-05-07T06:54:46;15.77;;;5.80;;
1010;SDS011;494;48.744;10.106;2023-05-07T06:57:15;12.50;;;5.80;;
1010;SDS011;494;48.744;10.106;2023-05-07T06:59:43;12.70;;;5.97;;
1010;SDS011;494;48.744;10.106;2023-05-07T07:02:12;12.03;;;6.33;;
1010;SDS011;494;48.744;10.106;2023-05-07T07:04:44;12.20;;;5.73;;
1010;SDS011;494;48.744;10.106;2023-05-07T07:07:14;12.87;;;6.10;;
1010;SDS011;494;48.744;10.106;2023-05-07T07:09:43;13.50;;;6.73;;
1010;SDS011;494;48.744;10.106;2023-05-07T07:12:12;13.10;;;5.77;;
1010;SDS011;494;48.744;10.106;2023-05-07T07:14:41;12.63;;;5.60;;
1010;SDS011;494;48.744;10.106;2023-05-07T07:17:09;11.00;;;5.80;;
1010;SDS011;494;48.744;10.106;2023-05-07T07:19:38;11.27;;;5.40;;
1010;SDS011;494;48.744;10.106;2023-05-07T07:22:07;13.60;;;6.00;;
1010;SDS011;494;48.744;10.106;2023-05-07T07:24:37;12.90;;;6.23;;
1010;SDS011;494;48.744;10.106;2023-05-07T07:27:05;11.83;;;5.50;;
1010;SDS011;494;48.744;10.106;2023-05-07T07:29:34;13.97;;;7.07;;
1010;SDS011;494;48.744;10.106;2023-05-07T07:32:03;12.20;;;9.60;;
1010;SDS011;494;48.744;10.106;2023-05-07T07:34:32;11.47;;;5.50;;
1010;SDS011;494;48.744;10.106;2023-05-07T07:37:01;11.20;;;5.53;;
1010;SDS011;494;48.744;10.106;2023-05-07T07:39:32;11.57;;;4.97;;
1010;SDS011;494;48.744;10.106;2023-05-07T07:42:03;11.33;;;5.57;;
1010;SDS011;494;48.744;10.106;2023-05-07T07:44:31;12.23;;;5.27;;
1010;SDS011;494;48.744;10.106;2023-05-07T07:47:00;14.10;;;5.57;;
1010;SDS011;494;48.744;10.106;2023-05-07T07:49:29;11.70;;;5.30;;
1010;SDS011;494;48.744;10.106;2023-05-07T07:51:58;13.00;;;4.90;;
1010;SDS011;494;48.744;10.106;2023-05-07T07:54:27;15.17;;;5.50;;
1010;SDS011;494;48.744;10.106;2023-05-07T07:56:55;12.03;;;5.00;;
1010;SDS011;494;48.744;10.106;2023-05-07T07:59:25;10.80;;;4.83;;
1010;SDS011;494;48.744;10.106;2023-05-07T08:01:54;11.20;;;4.33;;
1010;SDS011;494;48.744;10.106;2023-05-07T08:04:23;14.53;;;4.57;;
1010;SDS011;494;48.744;10.106;2023-05-07T08:06:52;11.80;;;4.50;;
1010;SDS011;494;48.744;10.106;2023-05-07T08:09:22;11.73;;;4.57;;
1010;SDS011;494;48.744;10.106;2023-05-07T08:11:51;10.70;;;4.30;;
1010;SDS011;494;48.744;10.106;2023-05-07T08:14:20;10.67;;;3.97;;
1010;SDS011;494;48.744;10.106;2023-05-07T08:16:50;10.60;;;3.97;;
1010;SDS011;494;48.744;10.106;2023-05-07T08:19:19;11.70;;;4.80;;
1010;SDS011;494;48.744;10.106;2023-05-07T08:21:48;11.37;;;4.37;;
1010;SDS011;494;48.744;10.106;2023-05-07T08:24:17;11.30;;;4.40;;
1010;SDS011;494;48.744;10.106;2023-05-07T08:26:46;10.33;;;4.43;;
1010;SDS011;494;48.744;10.106;2023-05-07T08:29:15;12.40;;;4.07;;
1010;SDS011;494;48.744;10.106;2023-05-07T08:31:44;13.40;;;4.50;;
1010;SDS011;494;48.744;10.106;2023-05-07T08:34:14;10.60;;;3.93;;
1010;SDS011;494;48.744;10.106;2023-05-07T08:36:43;10.87;;;3.87;;
1010;SDS011;494;48.744;10.106;2023-05-07T08:39:15;13.83;;;5.00;;
1010;SDS011;494;48.744;10.106;2023-05-07T08:41:44;11.63;;;3.90;;
1010;SDS011;494;48.744;10.106;2023-05-07T08:44:14;11.83;;;4.27;;
1010;SDS011;494;48.744;10.106;2023-05-07T08:46:44;11.73;;;4.10;;
1010;SDS011;494;48.744;10.106;2023-05-07T08:49:18;11.03;;;4.13;;
1010;SDS011;494;48.744;10.106;2023-05-07T08:51:47;10.70;;;4.17;;
1010;SDS011;494;48.744;10.106;2023-05-07T08:54:16;10.17;;;3.50;;
1010;SDS011;494;48.744;10.106;2023-05-07T08:56:46;11.20;;;3.67;;
1010;SDS011;494;48.744;10.106;2023-05-07T08:59:14;10.70;;;4.10;;
1010;SDS011;494;48.744;10.106;2023-05-07T09:01:43;10.43;;;3.97;;
1010;SDS011;494;48.744;10.106;2023-05-07T09:04:12;12.63;;;4.07;;
1010;SDS011;494;48.744;10.106;2023-05-07T09:06:42;10.80;;;3.50;;
1010;SDS011;494;48.744;10.106;2023-05-07T09:09:11;10.60;;;3.73;;
1010;SDS011;494;48.744;10.106;2023-05-07T09:11:45;10.10;;;3.70;;
1010;SDS011;494;48.744;10.106;2023-05-07T09:14:13;12.87;;;4.30;;
1010;SDS011;494;48.744;10.106;2023-05-07T09:16:42;11.50;;;4.07;;
1010;SDS011;494;48.744;10.106;2023-05-07T09:19:10;13.10;;;3.90;;
1010;SDS011;494;48.744;10.106;2023-05-07T09:21:39;17.03;;;4.40;;
1010;SDS011;494;48.744;10.106;2023-05-07T09:24:09;11.30;;;3.47;;
1010;SDS011;494;48.744;10.106;2023-05-07T09:26:38;10.43;;;4.00;;
1010;SDS011;494;48.744;10.106;2023-05-07T09:29:07;10.87;;;4.17;;
1010;SDS011;494;48.744;10.106;2023-05-07T09:31:38;11.37;;;4.00;;
1010;SDS011;494;48.744;10.106;2023-05-07T09:34:07;11.77;;;3.80;;
1010;SDS011;494;48.744;10.106;2023-05-07T09:36:35;17.23;;;4.57;;
1010;SDS011;494;48.744;10.106;2023-05-07T09:39:05;11.83;;;4.20;;
1010;SDS011;494;48.744;10.106;2023-05-07T09:41:42;12.53;;;4.00;;
1010;SDS011;494;48.744;10.106;2023-05-07T09:44:12;10.70;;;3.90;;
1010;SDS011;494;48.744;10.106;2023-05-07T09:46:42;11.20;;;3.50;;
1010;SDS011;494;48.744;10.106;2023-05-07T09:49:13;11.73;;;4.00;;
1010;SDS011;494;48.744;10.106;2023-05-07T09:51:50;11.73;;;3.90;;
1010;SDS011;494;48.744;10.106;2023-05-07T09:54:21;11.47;;;4.10;;
1010;SDS011;494;48.744;10.106;2023-05-07T09:56:51;14.37;;;4.90;;
1010;SDS011;494;48.744;10.106;2023-05-07T09:59:20;12.37;;;4.30;;
1010;SDS011;494;48.744;10.106;2023-05-07T10:01:50;11.30;;;3.80;;
1010;SDS011;494;48.744;10.106;2023-05-07T10:04:25;10.40;;;3.27;;
1010;SDS011;494;48.744;10.106;2023-05-07T10:06:54;13.10;;;4.10;;
1010;SDS011;494;48.744;10.106;2023-05-07T10:09:25;15.20;;;3.80;;
1010;SDS011;494;48.744;10.106;2023-05-07T10:11:54;21.00;;;4.33;;
1010;SDS011;494;48.744;10.106;2023-05-07T10:14:25;11.90;;;3.43;;
1010;SDS011;494;48.744;10.106;2023-05-07T10:16:56;14.63;;;3.57;;
1010;SDS011;494;48.744;10.106;2023-05-07T10:19:26;10.93;;;3.50;;
1010;SDS011;494;48.744;10.106;2023-05-07T10:21:59;11.90;;;3.40;;
1010;SDS011;494;48.744;10.106;2023-05-07T10:24:35;11.00;;;3.30;;
1010;SDS011;494;48.744;10.106;2023-05-07T10:27:05;11.10;;;3.60;;
1010;SDS011;494;48.744;10.106;2023-05-07T10:29:39;11.57;;;3.50;;
1010;SDS011;494;48.744;10.106;2023-05-07T10:32:20;10.60;;;3.27;;
1010;SDS011;494;48.744;10.106;2023-05-07T10:35:06;10.37;;;3.43;;
1010;SDS011;494;48.744;10.106;2023-05-07T10:37:43;10.80;;;3.57;;
1010;SDS011;494;48.744;10.106;2023-05-07T10:40:14;11.63;;;3.80;;
1010;SDS011;494;48.744;10.106;2023-05-07T10:42:53;13.10;;;3.80;;
1010;SDS011;494;48.744;10.106;2023-05-07T10:45:23;11.30;;;3.50;;
1010;SDS011;494;48.744;10.106;2023-05-07T10:48:06;11.53;;;3.60;;
1010;SDS011;494;48.744;10.106;2023-05-07T10:53:54;12.03;;;3.60;;
1010;SDS011;494;48.744;10.106;2023-05-07T10:56:51;11.00;;;3.50;;
1010;SDS011;494;48.744;10.106;2023-05-07T10:59:35;13.20;;;3.97;;
1010;SDS011;494;48.744;10.106;2023-05-07T11:02:09;13.00;;;3.83;;
1010;SDS011;494;48.744;10.106;2023-05-07T11:04:40;10.83;;;3.70;;
1010;SDS011;494;48.744;10.106;2023-05-07T11:07:25;11.63;;;3.60;;
1010;SDS011;494;48.744;10.106;2023-05-07T11:09:59;12.10;;;3.70;;
1010;SDS011;494;48.744;10.106;2023-05-07T11:13:01;13.23;;;3.67;;
1010;SDS011;494;48.744;10.106;2023-05-07T11:18:18;12.20;;;3.60;;
1010;SDS011;494;48.744;10.106;2023-05-07T11:20:54;11.83;;;3.67;;
1010;SDS011;494;48.744;10.106;2023-05-07T11:26:27;11.97;;;3.60;;
1010;SDS011;494;48.744;10.106;2023-05-07T11:28:59;12.73;;;3.43;;
1010;SDS011;494;48.744;10.106;2023-05-07T11:31:28;11.30;;;3.57;;
1010;SDS011;494;48.744;10.106;2023-05-07T11:33:57;12.93;;;3.60;;
1010;SDS011;494;48.744;10.106;2023-05-07T11:36:30;11.43;;;3.63;;
1010;SDS011;494;48.744;10.106;2023-05-07T11:39:00;12.33;;;3.90;;
1010;SDS011;494;48.744;10.106;2023-05-07T11:41:33;12.60;;;4.30;;
1010;SDS011;494;48.744;10.106;2023-05-07T11:44:05;12.00;;;3.60;;
1010;SDS011;494;48.744;10.106;2023-05-07T11:46:36;12.77;;;4.20;;
1010;SDS011;494;48.744;10.106;2023-05-07T11:49:10;12.27;;;3.63;;
1010;SDS011;494;48.744;10.106;2023-05-07T11:51:39;12.10;;;3.60;;
1010;SDS011;494;48.744;10.106;2023-05-07T11:54:08;10.93;;;3.90;;
1010;SDS011;494;48.744;10.106;2023-05-07T11:56:40;10.90;;;3.50;;
1010;SDS011;494;48.744;10.106;2023-05-07T11:59:10;15.23;;;4.13;;
1010;SDS011;494;48.744;10.106;2023-05-07T12:01:39;10.63;;;3.70;;
1010;SDS011;494;48.744;10.106;2023-05-07T12:04:08;12.13;;;3.40;;
1010;SDS011;494;48.744;10.106;2023-05-07T12:06:37;12.23;;;3.90;;
1010;SDS011;494;48.744;10.106;2023-05-07T12:09:06;11.90;;;3.77;;
1010;SDS011;494;48.744;10.106;2023-05-07T12:11:38;11.93;;;3.73;;
1010;SDS011;494;48.744;10.106;2023-05-07T12:14:07;13.60;;;3.50;;
1010;SDS011;494;48.744;10.106;2023-05-07T12:16:38;11.53;;;3.80;;
1010;SDS011;494;48.744;10.106;2023-05-07T12:19:08;13.10;;;3.67;;
1010;SDS011;494;48.744;10.106;2023-05-07T12:21:41;11.13;;;3.77;;
1010;SDS011;494;48.744;10.106;2023-05-07T12:24:10;13.13;;;3.83;;
1010;SDS011;494;48.744;10.106;2023-05-07T12:26:39;15.30;;;4.13;;
1010;SDS011;494;48.744;10.106;2023-05-07T12:29:09;10.93;;;3.50;;
1010;SDS011;494;48.744;10.106;2023-05-07T12:31:40;12.27;;;3.77;;
1010;SDS011;494;48.744;10.106;2023-05-07T12:34:10;11.70;;;3.57;;
1010;SDS011;494;48.744;10.106;2023-05-07T12:36:39;10.97;;;3.67;;
1010;SDS011;494;48.744;10.106;2023-05-07T12:39:08;11.60;;;3.40;;
1010;SDS011;494;48.744;10.106;2023-05-07T12:41:51;12.10;;;4.20;;
1010;SDS011;494;48.744;10.106;2023-05-07T12:44:23;11.90;;;4.03;;
1010;SDS011;494;48.744;10.106;2023-05-07T12:46:52;18.40;;;4.20;;
1010;SDS011;494;48.744;10.106;2023-05-07T12:49:22;14.03;;;4.90;;
1010;SDS011;494;48.744;10.106;2023-05-07T12:51:51;13.07;;;4.07;;
1010;SDS011;494;48.744;10.106;2023-05-07T12:54:28;12.03;;;3.77;;
1010;SDS011;494;48.744;10.106;2023-05-07T12:57:01;12.27;;;4.40;;
1010;SDS011;494;48.744;10.106;2023-05-07T12:59:32;11.70;;;4.20;;
1010;SDS011;494;48.744;10.106;2023-05-07T13:02:04;12.00;;;4.70;;
1010;SDS011;494;48.744;10.106;2023-05-07T13:04:34;11.93;;;4.23;;
1010;SDS011;494;48.744;10.106;2023-05-07T13:07:03;13.30;;;4.60;;
1010;SDS011;494;48.744;10.106;2023-05-07T13:09:33;12.17;;;4.40;;
1010;SDS011;494;48.744;10.106;2023-05-07T13:12:03;13.33;;;4.40;;
1010;SDS011;494;48.744;10.106;2023-05-07T13:14:36;12.57;;;4.27;;
1010;SDS011;494;48.744;10.106;2023-05-07T13:17:05;13.63;;;4.03;;
1010;SDS011;494;48.744;10.106;2023-05-07T13:19:34;12.40;;;4.40;;
1010;SDS011;494;48.744;10.106;2023-05-07T13:22:03;11.60;;;3.90;;
1010;SDS011;494;48.744;10.106;2023-05-07T13:24:33;12.30;;;4.10;;
1010;SDS011;494;48.744;10.106;2023-05-07T13:27:02;13.50;;;3.70;;
1010;SDS011;494;48.744;10.106;2023-05-07T13:29:30;14.00;;;4.17;;
1010;SDS011;494;48.744;10.106;2023-05-07T13:32:00;12.37;;;4.10;;
1010;SDS011;494;48.744;10.106;2023-05-07T13:34:29;12.00;;;4.10;;
1010;SDS011;494;48.744;10.106;2023-05-07T13:36:57;11.83;;;4.40;;
1010;SDS011;494;48.744;10.106;2023-05-07T13:39:26;11.40;;;4.00;;
1010;SDS011;494;48.744;10.106;2023-05-07T13:41:55;12.43;;;4.20;;
1010;SDS011;494;48.744;10.106;2023-05-07T13:44:23;11.47;;;4.30;;
1010;SDS011;494;48.744;10.106;2023-05-07T13:46:53;11.20;;;3.70;;
1010;SDS011;494;48.744;10.106;2023-05-07T13:49:23;13.50;;;4.50;;
1010;SDS011;494;48.744;10.106;2023-05-07T13:51:52;12.37;;;5.03;;
1010;SDS011;494;48.744;10.106;2023-05-07T13:54:21;13.50;;;4.13;;
1010;SDS011;494;48.744;10.106;2023-05-07T13:56:50;12.07;;;3.80;;
1010;SDS011;494;48.744;10.106;2023-05-07T13:59:18;12.10;;;4.50;;
1010;SDS011;494;48.744;10.106;2023-05-07T14:01:47;12.47;;;4.67;;
1010;SDS011;494;48.744;10.106;2023-05-07T14:04:16;14.13;;;4.17;;
1010;SDS011;494;48.744;10.106;2023-05-07T14:06:46;12.13;;;4.10;;
1010;SDS011;494;48.744;10.106;2023-05-07T14:09:15;11.60;;;4.33;;
1010;SDS011;494;48.744;10.106;2023-05-07T14:11:43;11.50;;;4.40;;
1010;SDS011;494;48.744;10.106;2023-05-07T14:14:13;10.63;;;4.00;;
1010;SDS011;494;48.744;10.106;2023-05-07T14:16:42;11.57;;;4.27;;
1010;SDS011;494;48.744;10.106;2023-05-07T14:19:13;13.07;;;4.27;;
1010;SDS011;494;48.744;10.106;2023-05-07T14:21:42;11.00;;;4.30;;
1010;SDS011;494;48.744;10.106;2023-05-07T14:24:12;11.90;;;4.00;;
1010;SDS011;494;48.744;10.106;2023-05-07T14:26:56;12.63;;;3.97;;
1010;SDS011;494;48.744;10.106;2023-05-07T14:29:24;13.17;;;4.33;;
1010;SDS011;494;48.744;10.106;2023-05-07T14:31:53;12.63;;;4.80;;
1010;SDS011;494;48.744;10.106;2023-05-07T14:34:22;11.63;;;4.43;;
1010;SDS011;494;48.744;10.106;2023-05-07T14:36:50;13.43;;;4.20;;
1010;SDS011;494;48.744;10.106;2023-05-07T14:39:20;13.40;;;5.13;;
1010;SDS011;494;48.744;10.106;2023-05-07T14:41:49;14.63;;;5.23;;
1010;SDS011;494;48.744;10.106;2023-05-07T14:44:18;11.63;;;4.20;;
1010;SDS011;494;48.744;10.106;2023-05-07T14:46:47;13.60;;;4.80;;
1010;SDS011;494;48.744;10.106;2023-05-07T14:49:30;12.90;;;4.77;;
1010;SDS011;494;48.744;10.106;2023-05-07T14:52:05;12.83;;;4.50;;
1010;SDS011;494;48.744;10.106;2023-05-07T14:54:38;14.40;;;5.27;;
1010;SDS011;494;48.744;10.106;2023-05-07T14:57:09;12.40;;;4.70;;
1010;SDS011;494;48.744;10.106;2023-05-07T14:59:39;13.50;;;4.37;;
1010;SDS011;494;48.744;10.106;2023-05-07T15:02:08;12.80;;;4.40;;
1010;SDS011;494;48.744;10.106;2023-05-07T15:04:38;11.93;;;4.60;;
1010;SDS011;494;48.744;10.106;2023-05-07T15:07:12;17.77;;;5.17;;
1010;SDS011;494;48.744;10.106;2023-05-07T15:09:44;11.70;;;4.03;;
1010;SDS011;494;48.744;10.106;2023-05-07T15:12:13;11.90;;;4.60;;
1010;SDS011;494;48.744;10.106;2023-05-07T15:14:42;14.67;;;4.87;;
1010;SDS011;494;48.744;10.106;2023-05-07T15:17:11;11.63;;;4.27;;
1010;SDS011;494;48.744;10.106;2023-05-07T15:19:41;11.40;;;4.87;;
1010;SDS011;494;48.744;10.106;2023-05-07T15:22:10;11.30;;;4.60;;
1010;SDS011;494;48.744;10.106;2023-05-07T15:24:39;11.77;;;4.57;;
1010;SDS011;494;48.744;10.106;2023-05-07T15:27:10;13.80;;;5.33;;
1010;SDS011;494;48.744;10.106;2023-05-07T15:29:38;14.47;;;5.07;;